createdAt,value
2022-12-12T00:00:34.857Z,92409.91
2022-12-12T00:01:33.046Z,92405.50
2022-12-12T00:02:29.721Z,92412.09
2022-12-12T00:03:26.470Z,92416.56
2022-12-12T00:04:23.145Z,92424.34
2022-12-12T00:05:19.911Z,92425.88
2022-12-12T00:06:16.625Z,92423.88
2022-12-12T00:07:13.202Z,92438.53
2022-12-12T00:08:09.802Z,92434.81
2022-12-12T00:09:06.510Z,92441.22
2022-12-12T00:10:04.639Z,92439.06
2022-12-12T00:11:01.405Z,92439.25
2022-12-12T00:11:58.128Z,92446.00
2022-12-12T00:12:54.956Z,92457.84
2022-12-12T00:13:53.086Z,92454.78
2022-12-12T00:14:49.782Z,92411.00
2022-12-12T00:15:46.436Z,92454.28
2022-12-12T00:16:43.059Z,92449.91
2022-12-12T00:17:39.664Z,92442.84
2022-12-12T00:18:37.077Z,92458.63
2022-12-12T00:19:33.724Z,92453.94
2022-12-12T00:20:30.441Z,92454.19
2022-12-12T00:21:29.272Z,92453.31
2022-12-12T00:22:25.919Z,92460.53
2022-12-12T00:23:24.450Z,92440.47
2022-12-12T00:24:21.077Z,92462.53
2022-12-12T00:25:17.726Z,92455.28
2022-12-12T00:26:23.600Z,92456.56
2022-12-12T00:27:20.235Z,92455.19
2022-12-12T00:28:16.838Z,92449.25
2022-12-12T00:29:13.597Z,92444.56
2022-12-12T00:30:10.526Z,92420.16
2022-12-12T00:31:07.192Z,92456.16
2022-12-12T00:32:04.021Z,92456.91
2022-12-12T00:33:00.587Z,92450.56
2022-12-12T00:33:57.335Z,92439.91
2022-12-12T00:34:53.964Z,92455.88
2022-12-12T00:35:52.890Z,92447.03
2022-12-12T00:36:51.634Z,92400.50
2022-12-12T00:37:48.273Z,92455.56
2022-12-12T00:38:44.876Z,92463.41
2022-12-12T00:39:41.904Z,92470.75
2022-12-12T00:40:38.513Z,92470.19
2022-12-12T00:41:37.275Z,92473.78
2022-12-12T00:42:33.877Z,92474.09
2022-12-12T00:43:30.518Z,92478.34
2022-12-12T00:44:27.251Z,92492.06
2022-12-12T00:45:23.888Z,92480.47
2022-12-12T00:46:24.720Z,92461.56
2022-12-12T00:47:21.456Z,92476.91
2022-12-12T00:48:18.339Z,92462.63
2022-12-12T00:49:14.977Z,92471.03
2022-12-12T00:50:11.612Z,92474.88
2022-12-12T00:51:10.612Z,92465.25
2022-12-12T00:52:07.231Z,92469.31
2022-12-12T00:53:03.949Z,92472.81
2022-12-12T00:54:00.775Z,92468.34
2022-12-12T00:54:57.890Z,92460.75
2022-12-12T00:55:56.665Z,92460.44
2022-12-12T00:56:53.218Z,92468.84
2022-12-12T00:57:49.870Z,92468.28
2022-12-12T00:58:46.935Z,92460.47
2022-12-12T00:59:43.501Z,92466.63
2022-12-12T01:00:42.716Z,92470.88
2022-12-12T01:01:39.346Z,92468.78
2022-12-12T01:02:36.036Z,92466.47
2022-12-12T01:03:35.126Z,92459.44
2022-12-12T01:04:31.723Z,92462.72
2022-12-12T01:05:28.785Z,92463.53
2022-12-12T01:06:26.407Z,92460.03
2022-12-12T01:07:23.579Z,92470.34
2022-12-12T01:08:20.200Z,92476.69
2022-12-12T01:09:16.807Z,92473.88
2022-12-12T01:10:13.583Z,92477.38
2022-12-12T01:11:11.932Z,92485.72
2022-12-12T01:12:08.749Z,92473.38
2022-12-12T01:13:05.758Z,92446.84
2022-12-12T01:14:02.581Z,92471.97
2022-12-12T01:14:59.188Z,92416.38
2022-12-12T01:15:56.200Z,92462.91
2022-12-12T01:16:52.874Z,92427.94
2022-12-12T01:17:49.432Z,92461.13
2022-12-12T01:18:46.514Z,92465.16
2022-12-12T01:19:43.079Z,92476.56
2022-12-12T01:20:41.692Z,92468.34
2022-12-12T01:21:38.274Z,92475.66
2022-12-12T01:22:37.230Z,92398.53
2022-12-12T01:23:33.801Z,92473.94
2022-12-12T01:24:30.498Z,92481.06
2022-12-12T01:25:27.084Z,92429.72
2022-12-12T01:26:24.852Z,92473.41
2022-12-12T01:27:21.421Z,92474.00
2022-12-12T01:28:17.971Z,92483.19
2022-12-12T01:29:14.573Z,92478.28
2022-12-12T01:30:13.772Z,92477.31
2022-12-12T01:31:11.848Z,92430.81
2022-12-12T01:32:08.612Z,92471.69
2022-12-12T01:33:05.201Z,92480.84
2022-12-12T01:34:01.879Z,92477.38
2022-12-12T01:34:58.531Z,92460.75
2022-12-12T01:35:55.238Z,92488.53
2022-12-12T01:36:52.632Z,92497.09
2022-12-12T01:37:49.727Z,92500.88
2022-12-12T01:38:48.012Z,92484.75
2022-12-12T01:39:44.566Z,92497.47
2022-12-12T01:40:41.184Z,92497.28
2022-12-12T01:41:37.893Z,92467.84
2022-12-12T01:42:34.914Z,92504.03
2022-12-12T01:43:31.535Z,92502.09
2022-12-12T01:44:47.688Z,92501.53
2022-12-12T01:45:59.661Z,92504.44
2022-12-12T01:46:56.278Z,92499.75
2022-12-12T01:47:52.927Z,92498.88
2022-12-12T01:48:54.804Z,92501.16
2022-12-12T01:49:54.736Z,92497.13
2022-12-12T01:50:51.852Z,92491.16
2022-12-12T01:51:52.343Z,92495.53
2022-12-12T01:52:49.823Z,92490.25
2022-12-12T01:53:48.389Z,92490.78
2022-12-12T01:54:49.447Z,92494.03
2022-12-12T01:55:48.059Z,92501.28
2022-12-12T01:56:47.038Z,92489.38
2022-12-12T01:57:47.268Z,92491.03
2022-12-12T01:58:47.457Z,92486.38
2022-12-12T01:59:46.198Z,92491.63
2022-12-12T02:00:43.144Z,92487.25
2022-12-12T02:01:40.337Z,92397.13
2022-12-12T02:02:39.404Z,92500.25
2022-12-12T02:03:37.042Z,92504.13
2022-12-12T02:04:34.007Z,92443.16
2022-12-12T02:05:37.598Z,92504.63
2022-12-12T02:06:34.367Z,92504.69
2022-12-12T02:07:31.143Z,92500.16
2022-12-12T02:08:28.414Z,92497.06
2022-12-12T02:09:26.001Z,92459.63
2022-12-12T02:10:22.673Z,92457.81
2022-12-12T02:11:19.295Z,92504.91
2022-12-12T02:12:15.948Z,92474.56
2022-12-12T02:13:17.028Z,92506.81
2022-12-12T02:14:34.616Z,92514.91
2022-12-12T02:15:45.778Z,92506.88
2022-12-12T02:16:51.487Z,92508.16
2022-12-12T02:18:09.843Z,92500.28
2022-12-12T02:19:33.746Z,92477.31
2022-12-12T02:21:25.059Z,92494.97
2022-12-12T02:22:41.507Z,92488.19
2022-12-12T02:23:53.402Z,92489.63
2022-12-12T02:25:11.950Z,92493.09
2022-12-12T02:26:15.556Z,92500.84
2022-12-12T02:27:27.394Z,92499.19
2022-12-12T02:29:00.349Z,92500.91
2022-12-12T02:29:59.586Z,92513.91
2022-12-12T02:31:14.835Z,92510.66
2022-12-12T02:32:25.331Z,92516.00
2022-12-12T02:33:34.238Z,92515.03
2022-12-12T02:34:45.205Z,92508.88
2022-12-12T02:36:05.369Z,92522.44
2022-12-12T02:37:12.858Z,92519.25
2022-12-12T02:38:25.854Z,92520.94
2022-12-12T02:39:54.614Z,92517.84
2022-12-12T02:41:00.006Z,92517.97
2022-12-12T02:42:10.570Z,92519.09
2022-12-12T02:43:13.459Z,92525.69
2022-12-12T02:44:38.460Z,92519.56
2022-12-12T02:45:51.270Z,92513.09
2022-12-12T02:47:06.333Z,92507.44
2022-12-12T02:48:33.843Z,92515.44
2022-12-12T02:49:41.089Z,92505.28
2022-12-12T02:50:40.083Z,92501.25
2022-12-12T02:51:38.414Z,92498.91
2022-12-12T02:52:36.266Z,92502.31
2022-12-12T02:53:33.110Z,92468.03
2022-12-12T02:54:29.896Z,92483.91
2022-12-12T02:55:26.914Z,92498.56
2022-12-12T02:56:41.909Z,92499.03
2022-12-12T02:57:41.675Z,92507.25
2022-12-12T02:58:38.738Z,92498.63
2022-12-12T02:59:41.894Z,92501.72
2022-12-12T03:00:56.536Z,92488.19
2022-12-12T03:02:22.577Z,92491.72
2022-12-12T03:03:53.882Z,92495.16
2022-12-12T03:05:32.749Z,92498.38
2022-12-12T03:07:15.633Z,92464.88
2022-12-12T03:08:42.186Z,92496.81
2022-12-12T03:10:04.606Z,92507.16
2022-12-12T03:11:11.029Z,92492.19
2022-12-12T03:12:17.394Z,92503.16
2022-12-12T03:13:35.621Z,92518.59
2022-12-12T03:14:44.123Z,92519.56
2022-12-12T03:16:12.319Z,92511.88
2022-12-12T03:17:18.154Z,92509.91
2022-12-12T03:18:26.854Z,92471.44
2022-12-12T03:19:28.659Z,92504.59
2022-12-12T03:20:43.187Z,92507.69
2022-12-12T03:21:59.599Z,92512.75
2022-12-12T03:23:02.797Z,92512.63
2022-12-12T03:24:05.700Z,92504.00
2022-12-12T03:25:24.556Z,92512.66
2022-12-12T03:26:32.019Z,92520.34
2022-12-12T03:27:48.351Z,92505.88
2022-12-12T03:29:08.125Z,92504.78
2022-12-12T03:30:11.884Z,92505.72
2022-12-12T03:31:12.057Z,92496.47
2022-12-12T03:32:16.563Z,92503.84
2022-12-12T03:33:32.693Z,92486.91
2022-12-12T03:34:38.770Z,92491.06
2022-12-12T03:35:41.795Z,92492.00
2022-12-12T03:36:49.023Z,92508.78
2022-12-12T03:37:58.756Z,92517.38
2022-12-12T03:39:06.145Z,92519.50
2022-12-12T03:40:14.157Z,92521.81
2022-12-12T03:41:22.180Z,92527.97
2022-12-12T03:42:18.707Z,92531.72
2022-12-12T03:43:20.199Z,92520.31
2022-12-12T03:44:29.338Z,92511.56
2022-12-12T03:45:35.255Z,92503.84
2022-12-12T03:46:39.619Z,92540.69
2022-12-12T03:47:43.727Z,92540.56
2022-12-12T03:48:49.351Z,92535.13
2022-12-12T03:49:58.381Z,92542.53
2022-12-12T03:51:00.680Z,92549.19
2022-12-12T03:52:11.785Z,92545.78
2022-12-12T03:53:22.142Z,92548.06
2022-12-12T03:54:25.896Z,92549.63
2022-12-12T03:55:45.360Z,92549.00
2022-12-12T03:56:51.061Z,92549.44
2022-12-12T03:57:56.875Z,92509.06
2022-12-12T03:59:01.657Z,92554.81
2022-12-12T04:00:05.900Z,92555.47
2022-12-12T04:01:07.954Z,92557.44
2022-12-12T04:02:16.828Z,92552.94
2022-12-12T04:03:25.163Z,92546.94
2022-12-12T04:04:29.436Z,92549.75
2022-12-12T04:05:30.851Z,92551.72
2022-12-12T04:06:39.035Z,92554.78
2022-12-12T04:07:43.995Z,92522.06
2022-12-12T04:09:00.680Z,92555.63
2022-12-12T04:10:15.910Z,92552.50
2022-12-12T04:11:39.152Z,92556.69
2022-12-12T04:13:03.536Z,92543.72
2022-12-12T04:14:32.861Z,92549.91
2022-12-12T04:15:53.162Z,92553.94
2022-12-12T04:17:00.660Z,92548.44
2022-12-12T04:18:33.502Z,92544.16
2022-12-12T04:20:18.277Z,92553.34
2022-12-12T04:21:58.996Z,92560.22
2022-12-12T04:23:16.448Z,92547.75
2022-12-12T04:24:20.262Z,92562.91
2022-12-12T04:26:04.920Z,92570.13
2022-12-12T04:27:07.246Z,92561.28
2022-12-12T04:28:07.558Z,92535.47
2022-12-12T04:29:19.426Z,92568.75
2022-12-12T04:30:16.845Z,92569.50
2022-12-12T04:31:14.009Z,92570.13
2022-12-12T04:32:42.546Z,92567.31
2022-12-12T04:33:48.704Z,92574.13
2022-12-12T04:35:00.138Z,92575.06
2022-12-12T04:36:00.195Z,92578.31
2022-12-12T04:36:56.925Z,92579.72
2022-12-12T04:38:00.764Z,92581.91
2022-12-12T04:39:00.156Z,92580.09
2022-12-12T04:40:00.024Z,92585.22
2022-12-12T04:40:59.481Z,92585.47
2022-12-12T04:41:57.548Z,92572.13
2022-12-12T04:42:59.360Z,92587.53
2022-12-12T04:43:56.981Z,92596.00
2022-12-12T04:44:59.297Z,92581.19
2022-12-12T04:46:09.752Z,92544.44
2022-12-12T04:47:09.095Z,92581.28
2022-12-12T04:48:09.417Z,92548.59
2022-12-12T04:49:15.730Z,92530.59
2022-12-12T04:50:14.047Z,92581.34
2022-12-12T04:51:13.814Z,92571.94
2022-12-12T04:52:13.882Z,92582.28
2022-12-12T04:53:18.528Z,92581.16
2022-12-12T04:54:49.075Z,92574.97
2022-12-12T04:55:54.855Z,92575.06
2022-12-12T04:56:58.582Z,92574.66
2022-12-12T04:57:55.767Z,92570.81
2022-12-12T04:58:52.423Z,92573.75
2022-12-12T04:59:49.653Z,92567.69
2022-12-12T05:00:51.917Z,92569.09
2022-12-12T05:01:57.401Z,92560.78
2022-12-12T05:03:19.924Z,92557.63
2022-12-12T05:04:25.128Z,92561.81
2022-12-12T05:05:28.204Z,92564.88
2022-12-12T05:06:32.963Z,92561.38
2022-12-12T05:07:37.859Z,92559.53
2022-12-12T05:08:42.822Z,92558.09
2022-12-12T05:09:39.996Z,92556.25
2022-12-12T05:10:43.839Z,92557.47
2022-12-12T05:11:42.123Z,92574.16
2022-12-12T05:12:50.037Z,92524.66
2022-12-12T05:13:46.631Z,92554.69
2022-12-12T05:14:43.446Z,92519.38
2022-12-12T05:15:44.799Z,92561.78
2022-12-12T05:16:47.492Z,92563.03
2022-12-12T05:17:48.714Z,92568.41
2022-12-12T05:18:45.755Z,92565.75
2022-12-12T05:19:42.323Z,92569.09
2022-12-12T05:20:39.082Z,92565.72
2022-12-12T05:21:35.710Z,92560.63
2022-12-12T05:22:32.403Z,92567.72
2022-12-12T05:23:34.369Z,92572.31
2022-12-12T05:24:32.029Z,92527.44
2022-12-12T05:25:28.661Z,92566.41
2022-12-12T05:26:28.326Z,92570.09
2022-12-12T05:27:24.930Z,92564.13
2022-12-12T05:28:21.558Z,92572.22
2022-12-12T05:29:18.177Z,92507.97
2022-12-12T05:30:14.981Z,92574.75
2022-12-12T05:31:11.650Z,92566.28
2022-12-12T05:32:08.243Z,92573.03
2022-12-12T05:33:04.849Z,92485.81
2022-12-12T05:34:01.478Z,92571.31
2022-12-12T05:34:58.045Z,92575.44
2022-12-12T05:35:54.615Z,92582.25
2022-12-12T05:36:51.282Z,92584.38
2022-12-12T05:37:51.637Z,92591.50
2022-12-12T05:38:48.705Z,92578.19
2022-12-12T05:39:45.298Z,92580.31
2022-12-12T05:40:41.932Z,92588.88
2022-12-12T05:41:38.493Z,92584.25
2022-12-12T05:42:35.255Z,92595.19
2022-12-12T05:43:32.187Z,92593.16
2022-12-12T05:44:28.804Z,92589.22
2022-12-12T05:45:25.498Z,92585.03
2022-12-12T05:46:22.133Z,92590.44
2022-12-12T05:47:21.353Z,92588.91
2022-12-12T05:48:23.963Z,92593.63
2022-12-12T05:49:21.064Z,92597.63
2022-12-12T05:50:17.810Z,92598.84
2022-12-12T05:51:14.403Z,92606.13
2022-12-12T05:52:11.088Z,92608.44
2022-12-12T05:53:07.741Z,92599.34
2022-12-12T05:54:04.468Z,92601.34
2022-12-12T05:55:01.098Z,92600.19
2022-12-12T05:55:57.820Z,92597.84
2022-12-12T05:56:54.510Z,92601.72
2022-12-12T05:57:51.059Z,92566.09
2022-12-12T05:58:47.659Z,92602.94
2022-12-12T05:59:44.631Z,92609.75
2022-12-12T06:00:41.248Z,92614.34
2022-12-12T06:01:37.851Z,92593.75
2022-12-12T06:02:34.606Z,92588.81
2022-12-12T06:03:32.481Z,92619.38
2022-12-12T06:04:29.197Z,92619.84
2022-12-12T06:05:25.936Z,92608.75
2022-12-12T06:06:22.832Z,92617.53
2022-12-12T06:07:19.476Z,92617.41
2022-12-12T06:08:18.803Z,92609.81
2022-12-12T06:09:17.974Z,92602.31
2022-12-12T06:10:14.763Z,92605.59
2022-12-12T06:11:12.691Z,92606.66
2022-12-12T06:12:09.413Z,92600.28
2022-12-12T06:13:05.980Z,92610.34
2022-12-12T06:14:02.571Z,92601.81
2022-12-12T06:14:59.154Z,92614.13
2022-12-12T06:15:55.761Z,92612.44
2022-12-12T06:16:52.874Z,92609.50
2022-12-12T06:17:51.488Z,92612.19
2022-12-12T06:18:55.597Z,92621.59
2022-12-12T06:19:52.886Z,92622.59
2022-12-12T06:20:49.491Z,92624.13
2022-12-12T06:21:46.108Z,92630.31
2022-12-12T06:22:42.700Z,92637.22
2022-12-12T06:23:41.002Z,92643.06
2022-12-12T06:24:37.630Z,92635.97
2022-12-12T06:25:34.355Z,92631.75
2022-12-12T06:26:31.075Z,92635.44
2022-12-12T06:27:28.016Z,92640.31
2022-12-12T06:28:24.628Z,92573.16
2022-12-12T06:29:21.193Z,92637.41
2022-12-12T06:30:17.861Z,92638.53
2022-12-12T06:31:15.778Z,92612.66
2022-12-12T06:32:12.398Z,92641.22
2022-12-12T06:33:08.970Z,92645.25
2022-12-12T06:34:05.538Z,92637.34
2022-12-12T06:35:02.162Z,92638.03
2022-12-12T06:36:26.836Z,92640.47
2022-12-12T06:37:23.589Z,92648.22
2022-12-12T06:38:20.644Z,92646.03
2022-12-12T06:39:18.049Z,92637.81
2022-12-12T06:40:15.678Z,92634.53
2022-12-12T06:41:15.006Z,92638.88
2022-12-12T06:42:11.571Z,92612.19
2022-12-12T06:43:08.110Z,92630.81
2022-12-12T06:44:04.929Z,92639.44
2022-12-12T06:45:01.579Z,92645.94
2022-12-12T06:46:03.647Z,92639.25
2022-12-12T06:47:00.566Z,92652.22
2022-12-12T06:47:57.167Z,92648.81
2022-12-12T06:48:55.257Z,92641.53
2022-12-12T06:49:51.901Z,92642.78
2022-12-12T06:50:48.527Z,92639.25
2022-12-12T06:51:45.286Z,92640.94
2022-12-12T06:52:41.910Z,92632.47
2022-12-12T06:53:38.598Z,92631.38
2022-12-12T07:50:36.274Z,92740.69
2022-12-12T07:51:32.910Z,92742.81
2022-12-12T07:52:29.579Z,92746.81
2022-12-12T07:53:26.194Z,92749.34
2022-12-12T07:54:22.744Z,92738.44
2022-12-12T07:55:19.344Z,92752.66
2022-12-12T07:56:17.726Z,92732.09
2022-12-12T07:57:14.343Z,92632.00
2022-12-12T07:58:11.015Z,92737.47
2022-12-12T07:59:07.857Z,92730.94
2022-12-12T08:00:15.833Z,92739.03
2022-12-12T08:01:18.633Z,92732.38
2022-12-12T08:02:15.318Z,92733.78
2022-12-12T08:03:12.007Z,92737.72
2022-12-12T08:04:08.662Z,92737.94
2022-12-12T08:07:16.122Z,92746.19
2022-12-12T08:08:12.782Z,92751.53
2022-12-12T08:09:09.409Z,92750.56
2022-12-12T08:10:06.215Z,92749.59
2022-12-12T08:11:11.427Z,92753.19
2022-12-12T08:12:08.219Z,92758.72
2022-12-12T08:13:05.022Z,92763.34
2022-12-12T08:14:01.647Z,92765.41
2022-12-12T08:14:58.377Z,92775.00
2022-12-12T08:15:55.162Z,92763.19
2022-12-12T08:16:52.617Z,92774.44
2022-12-12T08:17:49.281Z,92780.28
2022-12-12T08:18:46.164Z,92692.41
2022-12-12T08:19:42.815Z,92770.00
2022-12-12T08:20:41.892Z,92726.56
2022-12-12T08:21:38.431Z,92761.59
2022-12-12T08:22:35.150Z,92767.00
2022-12-12T08:23:31.739Z,92773.13
2022-12-12T08:24:31.238Z,92768.09
2022-12-12T08:25:27.923Z,92766.53
2022-12-12T08:26:26.150Z,92775.66
2022-12-12T08:27:22.750Z,92776.00
2022-12-12T08:28:19.368Z,92771.94
2022-12-12T08:29:16.051Z,92761.16
2022-12-12T08:30:12.927Z,92780.03
2022-12-12T08:31:09.646Z,92778.19
2022-12-12T08:32:06.332Z,92781.38
2022-12-12T08:33:07.957Z,92780.38
2022-12-12T08:34:05.646Z,92780.06
2022-12-12T08:35:02.379Z,92772.34
2022-12-12T08:35:58.958Z,92754.72
2022-12-12T08:36:55.536Z,92725.25
2022-12-12T08:37:52.202Z,92771.78
2022-12-12T08:38:49.792Z,92778.50
2022-12-12T08:39:48.405Z,92743.66
2022-12-12T08:40:48.131Z,92773.88
2022-12-12T08:41:50.190Z,92784.53
2022-12-12T08:42:46.785Z,92783.91
2022-12-12T08:43:44.200Z,92776.63
2022-12-12T08:44:41.110Z,92775.91
2022-12-12T08:45:38.894Z,92752.50
2022-12-12T08:46:38.374Z,92756.88
2022-12-12T08:47:35.083Z,92769.94
2022-12-12T08:48:31.832Z,92780.72
2022-12-12T08:49:28.375Z,92769.97
2022-12-12T08:50:24.992Z,92766.66
2022-12-12T08:51:22.046Z,92770.34
2022-12-12T08:52:18.818Z,92772.19
2022-12-12T08:53:15.442Z,92777.94
2022-12-12T08:54:12.990Z,92773.78
2022-12-12T08:55:09.657Z,92753.59
2022-12-12T08:56:06.769Z,92778.25
2022-12-12T08:57:03.471Z,92769.97
2022-12-12T08:58:00.102Z,92776.41
2022-12-12T08:58:56.679Z,92771.81
2022-12-12T08:59:53.202Z,92770.91
2022-12-12T09:00:49.976Z,92767.34
2022-12-12T09:01:46.652Z,92749.59
2022-12-12T09:02:44.223Z,92767.66
2022-12-12T09:03:40.920Z,92744.13
2022-12-12T09:04:38.095Z,92771.72
2022-12-12T09:05:35.637Z,92760.56
2022-12-12T09:06:32.301Z,92735.59
2022-12-12T09:07:28.937Z,92757.00
2022-12-12T09:08:25.657Z,92762.34
2022-12-12T09:09:22.344Z,92755.94
2022-12-12T09:10:18.934Z,92750.69
2022-12-12T09:11:16.271Z,92747.94
2022-12-12T09:12:12.925Z,92746.41
2022-12-12T09:13:11.405Z,92693.78
2022-12-12T09:14:07.988Z,92736.34
2022-12-12T09:15:05.090Z,92714.63
2022-12-12T09:16:01.956Z,92727.97
2022-12-12T09:16:58.576Z,92728.53
2022-12-12T09:17:55.268Z,92734.38
2022-12-12T09:18:52.141Z,92732.75
2022-12-12T09:19:48.710Z,92741.50
2022-12-12T09:20:56.091Z,92739.94
2022-12-12T09:21:52.673Z,92741.97
2022-12-12T09:22:49.343Z,92750.31
2022-12-12T09:23:46.254Z,92750.53
2022-12-12T09:24:42.968Z,92747.91
2022-12-12T09:25:42.600Z,92750.00
2022-12-12T09:26:39.384Z,92756.00
2022-12-12T09:27:36.439Z,92761.69
2022-12-12T09:28:33.314Z,92763.72
2022-12-12T09:29:30.077Z,92787.75
2022-12-12T09:30:26.726Z,92766.16
2022-12-12T09:31:23.501Z,92763.28
2022-12-12T09:32:24.577Z,92752.66
2022-12-12T09:33:21.598Z,92761.97
2022-12-12T09:34:18.208Z,92755.44
2022-12-12T09:35:15.231Z,92727.84
2022-12-12T09:36:13.824Z,92698.03
2022-12-12T09:37:10.558Z,92754.16
2022-12-12T09:38:14.006Z,92713.22
2022-12-12T09:39:11.343Z,92759.94
2022-12-12T09:40:09.426Z,92764.63
2022-12-12T09:41:09.053Z,92763.81
2022-12-12T09:42:11.323Z,92758.91
2022-12-12T09:43:15.829Z,92759.94
2022-12-12T09:44:18.682Z,92752.00
2022-12-12T09:45:16.001Z,92749.97
2022-12-12T09:47:00.507Z,92754.25
2022-12-12T09:48:00.813Z,92738.69
2022-12-12T09:49:07.500Z,92759.59
2022-12-12T09:50:14.655Z,92762.88
2022-12-12T09:51:13.052Z,92752.03
2022-12-12T09:52:15.744Z,92752.66
2022-12-12T09:53:16.330Z,92752.47
2022-12-12T09:54:16.690Z,92753.81
2022-12-12T09:55:20.460Z,92746.13
2022-12-12T09:56:35.191Z,92746.59
2022-12-12T09:57:44.623Z,92743.22
2022-12-12T09:58:53.866Z,92709.75
2022-12-12T10:00:05.594Z,92742.06
2022-12-12T10:01:08.006Z,92733.78
2022-12-12T10:02:23.228Z,92734.09
2022-12-12T10:03:37.830Z,92726.38
2022-12-12T10:04:53.830Z,92730.25
2022-12-12T10:06:28.589Z,92688.00
2022-12-12T10:07:43.546Z,92718.72
2022-12-12T10:08:42.943Z,92714.25
2022-12-12T10:10:01.033Z,92723.72
2022-12-12T10:11:27.346Z,92720.16
2022-12-12T10:12:25.894Z,92718.84
2022-12-12T10:13:26.849Z,92696.19
2022-12-12T10:14:38.788Z,92704.88
2022-12-12T10:15:39.340Z,92723.25
2022-12-12T10:16:38.606Z,92724.56
2022-12-12T10:17:43.331Z,92721.41
2022-12-12T10:18:43.458Z,92709.19
2022-12-12T10:19:49.850Z,92717.00
2022-12-12T10:20:52.177Z,92720.63
2022-12-12T10:21:51.764Z,92708.63
2022-12-12T10:23:17.421Z,92721.63
2022-12-12T10:24:33.737Z,92721.28
2022-12-12T10:25:49.020Z,92722.06
2022-12-12T10:26:45.636Z,92678.16
2022-12-12T10:27:42.257Z,92725.44
2022-12-12T10:28:39.142Z,92654.84
2022-12-12T10:29:41.200Z,92722.03
2022-12-12T10:31:08.045Z,92707.91
2022-12-12T10:32:27.682Z,92717.22
2022-12-12T10:33:51.335Z,92714.78
2022-12-12T10:35:16.937Z,92701.78
2022-12-12T10:36:34.379Z,92704.22
2022-12-12T10:37:54.220Z,92698.94
2022-12-12T10:39:21.551Z,92701.34
2022-12-12T10:40:37.665Z,92707.41
2022-12-12T10:41:48.872Z,92702.66
2022-12-12T10:43:02.505Z,92710.28
2022-12-12T10:44:20.001Z,92693.56
2022-12-12T10:45:40.820Z,92697.97
2022-12-12T10:46:50.029Z,92648.50
2022-12-12T10:47:47.022Z,92665.81
2022-12-12T10:48:45.707Z,92678.56
2022-12-12T10:49:42.576Z,92675.53
2022-12-12T10:50:44.616Z,92670.91
2022-12-12T10:51:43.550Z,92678.88
2022-12-12T10:52:40.403Z,92677.03
2022-12-12T10:53:37.203Z,92658.66
2022-12-12T10:54:44.230Z,92669.69
2022-12-12T10:56:00.578Z,92666.72
2022-12-12T10:57:18.011Z,92651.34
2022-12-12T10:58:19.506Z,92608.00
2022-12-12T10:59:22.209Z,92673.81
2022-12-12T11:00:29.434Z,92665.72
2022-12-12T11:02:08.561Z,92651.72
2022-12-12T11:02:56.850Z,92673.81
2022-12-12T11:03:59.112Z,92667.81
2022-12-12T11:05:07.152Z,92668.53
2022-12-12T11:06:08.014Z,92672.06
2022-12-12T11:07:04.842Z,92676.28
2022-12-12T11:08:07.476Z,92670.75
2022-12-12T11:09:15.707Z,92675.91
2022-12-12T11:10:26.865Z,92671.63
2022-12-12T11:11:28.586Z,92677.38
2022-12-12T11:12:35.103Z,92646.09
2022-12-12T11:13:39.459Z,92674.03
2022-12-12T11:14:37.694Z,92678.19
2022-12-12T11:15:46.236Z,92678.78
2022-12-12T11:16:44.720Z,92672.25
2022-12-12T11:17:41.761Z,92675.97
2022-12-12T11:18:38.370Z,92682.41
2022-12-12T11:19:39.215Z,92688.69
2022-12-12T11:20:44.361Z,92643.16
2022-12-12T11:21:41.346Z,92690.84
2022-12-12T11:22:39.712Z,92690.13
2022-12-12T11:23:40.759Z,92698.38
2022-12-12T11:24:43.315Z,92699.00
2022-12-12T11:25:39.897Z,92703.22
2022-12-12T11:26:49.246Z,92689.97
2022-12-12T11:27:46.326Z,92690.91
2022-12-12T11:28:45.625Z,92689.00
2022-12-12T11:29:47.964Z,92680.16
2022-12-12T11:30:44.857Z,92687.78
2022-12-12T11:31:43.914Z,92691.53
2022-12-12T11:32:47.486Z,92684.78
2022-12-12T11:33:52.778Z,92687.94
2022-12-12T11:34:58.257Z,92689.59
2022-12-12T11:35:56.191Z,92678.72
2022-12-12T11:36:53.699Z,92680.78
2022-12-12T11:37:56.102Z,92658.38
2022-12-12T11:38:56.114Z,92687.66
2022-12-12T11:39:54.256Z,92687.91
2022-12-12T11:41:03.795Z,92679.03
2022-12-12T11:42:16.452Z,92690.53
2022-12-12T11:43:29.443Z,92657.66
2022-12-12T11:44:30.097Z,92678.50
2022-12-12T11:45:26.790Z,92678.19
2022-12-12T11:46:33.733Z,92670.13
2022-12-12T11:47:38.757Z,92664.38
2022-12-12T11:48:41.144Z,92669.31
2022-12-12T11:49:45.891Z,92667.56
2022-12-12T11:50:46.471Z,92666.31
2022-12-12T11:51:44.463Z,92669.81
2022-12-12T11:52:41.067Z,92660.59
2022-12-12T11:53:45.128Z,92662.91
2022-12-12T11:54:41.732Z,92663.66
2022-12-12T11:56:04.822Z,92665.22
2022-12-12T11:57:06.691Z,92662.63
2022-12-12T11:58:26.581Z,92650.56
2022-12-12T11:59:35.115Z,92649.28
2022-12-12T12:00:42.431Z,92644.75
2022-12-12T12:02:11.283Z,92652.19
2022-12-12T12:03:35.624Z,92656.59
2022-12-12T12:05:11.843Z,92659.47
2022-12-12T12:06:34.586Z,92659.97
2022-12-12T12:08:03.339Z,92652.19
2022-12-12T12:09:22.425Z,92643.63
2022-12-12T12:10:36.254Z,92657.44
2022-12-12T12:11:59.115Z,92628.19
2022-12-12T12:13:13.879Z,92639.41
2022-12-12T12:14:42.777Z,92639.66
2022-12-12T12:16:07.616Z,92633.78
2022-12-12T12:17:07.052Z,92636.47
2022-12-12T12:18:19.805Z,92628.19
2022-12-12T12:19:26.039Z,92624.97
2022-12-12T12:20:49.806Z,92616.22
2022-12-12T12:22:23.686Z,92610.38
2022-12-12T12:23:42.470Z,92620.16
2022-12-12T12:24:40.786Z,92612.72
2022-12-12T12:25:51.861Z,92571.16
2022-12-12T12:27:25.273Z,92620.53
2022-12-12T12:28:34.524Z,92625.22
2022-12-12T12:29:52.046Z,92621.31
2022-12-12T12:31:06.371Z,92614.41
2022-12-12T12:32:12.666Z,92615.59
2022-12-12T12:33:30.939Z,92617.78
2022-12-12T12:34:33.719Z,92613.63
2022-12-12T12:35:50.316Z,92603.22
2022-12-12T12:37:14.120Z,92604.78
2022-12-12T12:38:16.893Z,92596.19
2022-12-12T12:39:34.922Z,92590.47
2022-12-12T12:40:48.648Z,92570.78
2022-12-12T12:41:45.273Z,92579.91
2022-12-12T12:43:14.010Z,92583.97
2022-12-12T12:44:30.521Z,92586.22
2022-12-12T12:45:45.752Z,92597.28
2022-12-12T12:47:00.985Z,92604.03
2022-12-12T12:48:19.466Z,92605.13
2022-12-12T12:49:23.649Z,92606.94
2022-12-12T12:50:28.305Z,92584.84
2022-12-12T12:51:31.762Z,92612.84
2022-12-12T12:52:36.604Z,92617.00
2022-12-12T12:53:42.743Z,92506.31
2022-12-12T12:54:41.245Z,92626.94
2022-12-12T12:55:47.747Z,92615.16
2022-12-12T12:56:50.626Z,92618.00
2022-12-12T12:57:50.346Z,92619.47
2022-12-12T12:58:49.590Z,92614.47
2022-12-12T12:59:53.719Z,92582.41
2022-12-12T13:00:59.977Z,92622.66
2022-12-12T13:02:01.617Z,92623.13
2022-12-12T13:03:07.491Z,92620.22
2022-12-12T13:04:22.678Z,92617.19
2022-12-12T13:05:22.603Z,92613.13
2022-12-12T13:06:25.754Z,92613.38
2022-12-12T13:07:28.938Z,92619.75
2022-12-12T13:08:39.973Z,92617.31
2022-12-12T13:09:59.768Z,92625.94
2022-12-12T13:11:07.813Z,92621.63
2022-12-12T13:12:33.420Z,92621.06
2022-12-12T13:13:32.815Z,92629.44
2022-12-12T13:14:49.465Z,92629.19
2022-12-12T13:15:51.679Z,92626.91
2022-12-12T13:16:50.985Z,92631.66
2022-12-12T13:18:01.617Z,92628.22
2022-12-12T13:19:24.188Z,92622.91
2022-12-12T13:20:25.868Z,92629.38
2022-12-12T13:21:35.547Z,92632.56